createdAt,value
2016-12-21T00:00:21.688Z,1019.77
2016-12-21T00:01:30.988Z,1019.77
2016-12-21T00:02:39.983Z,1019.8
2016-12-21T00:03:48.973Z,1019.84
2016-12-21T00:04:57.680Z,1019.88
2016-12-21T00:06:07.433Z,1019.9
2016-12-21T00:07:16.122Z,1019.92
2016-12-21T00:08:25.424Z,1019.92
2016-12-21T00:09:34.400Z,1019.95
2016-12-21T00:10:43.693Z,1019.91
2016-12-21T00:11:53.580Z,1019.92
2016-12-21T00:13:02.554Z,1019.89
2016-12-21T00:14:11.546Z,1019.89
2016-12-21T00:15:20.863Z,1019.94
2016-12-21T00:16:29.545Z,1019.91
2016-12-21T00:17:38.371Z,1019.96
2016-12-21T00:18:47.665Z,1019.94
2016-12-21T00:19:56.652Z,1019.89
2016-12-21T00:21:06.297Z,1019.91
2016-12-21T00:22:15.289Z,1019.97
2016-12-21T00:23:23.973Z,1019.99
2016-12-21T00:24:32.971Z,1020.04
2016-12-21T00:25:42.279Z,1020.02
2016-12-21T00:26:51.570Z,1019.99
2016-12-21T00:28:00.543Z,1019.98
2016-12-21T00:29:09.563Z,1019.94
2016-12-21T00:30:19.209Z,1019.9
2016-12-21T00:31:28.192Z,1019.92
2016-12-21T00:32:37.800Z,1019.88
2016-12-21T00:33:46.836Z,1019.9
2016-12-21T00:34:55.603Z,1019.9
2016-12-21T00:36:04.604Z,1019.86
2016-12-21T00:37:13.582Z,1019.93
2016-12-21T00:38:22.871Z,1019.95
2016-12-21T00:39:31.856Z,1020.03
2016-12-21T00:40:40.851Z,1020.02
2016-12-21T00:41:49.843Z,1019.98
2016-12-21T00:42:58.536Z,1020.06
2016-12-21T00:44:07.823Z,1020.06
2016-12-21T00:45:16.544Z,1020.05
2016-12-21T00:46:26.299Z,1020.07
2016-12-21T00:47:35.006Z,1020.1
2016-12-21T00:48:44.003Z,1020.09
2016-12-21T00:49:53.295Z,1020.07
2016-12-21T00:51:01.991Z,1020.06
2016-12-21T00:52:11.599Z,1020.12
2016-12-21T00:53:20.909Z,1020.11
2016-12-21T00:54:29.598Z,1020.12
2016-12-21T00:55:38.313Z,1020.14
2016-12-21T00:56:47.051Z,1020.18
2016-12-21T00:57:55.730Z,1020.16
2016-12-21T00:59:04.771Z,1020.19
2016-12-21T01:00:13.753Z,1020.2
2016-12-21T01:01:23.040Z,1020.24
2016-12-21T01:02:32.371Z,1020.21
2016-12-21T01:03:41.669Z,1020.22
2016-12-21T01:04:51.267Z,1020.17
2016-12-21T01:05:59.957Z,1020.17
2016-12-21T01:07:08.955Z,1020.16
2016-12-21T01:08:17.969Z,1020.2
2016-12-21T01:09:26.986Z,1020.17
2016-12-21T01:10:35.983Z,1020.19
2016-12-21T01:11:45.025Z,1020.25
2016-12-21T01:12:54.321Z,1020.24
2016-12-21T01:14:03.627Z,1020.22
2016-12-21T01:15:12.769Z,1020.22
2016-12-21T01:16:22.704Z,1020.19
2016-12-21T01:17:31.697Z,1020.25
2016-12-21T01:18:40.400Z,1020.21
2016-12-21T01:19:49.082Z,1020.21
2016-12-21T01:20:58.679Z,1020.27
2016-12-21T01:22:07.357Z,1020.26
2016-12-21T01:23:17.028Z,1020.27
2016-12-21T01:24:26.657Z,1020.22
2016-12-21T01:25:35.641Z,1020.24
2016-12-21T01:26:44.944Z,1020.25
2016-12-21T01:27:54.262Z,1020.21
2016-12-21T01:29:02.971Z,1020.22
2016-12-21T01:30:11.664Z,1020.23
2016-12-21T01:31:20.963Z,1020.21
2016-12-21T01:32:30.004Z,1020.21
2016-12-21T01:33:39.321Z,1020.19
2016-12-21T01:34:48.332Z,1020.21
2016-12-21T01:35:57.059Z,1020.26
2016-12-21T01:37:06.053Z,1020.26
2016-12-21T01:38:15.043Z,1020.26
2016-12-21T01:39:24.337Z,1020.34
2016-12-21T01:40:34.265Z,1020.38
2016-12-21T01:41:43.260Z,1020.44
2016-12-21T01:42:52.251Z,1020.5
2016-12-21T01:44:01.934Z,1020.49
2016-12-21T01:45:10.614Z,1020.48
2016-12-21T01:46:19.655Z,1020.48
2016-12-21T01:47:29.320Z,1020.52
2016-12-21T01:48:38.326Z,1020.56
2016-12-21T01:49:47.754Z,1020.54
2016-12-21T01:50:56.738Z,1020.48
2016-12-21T01:52:05.730Z,1020.55
2016-12-21T01:53:14.704Z,1020.57
2016-12-21T01:54:23.721Z,1020.54
2016-12-21T01:55:33.159Z,1020.58
2016-12-21T01:56:42.145Z,1020.55
2016-12-21T01:57:50.822Z,1020.56
2016-12-21T01:58:59.809Z,1020.51
2016-12-21T02:00:08.514Z,1020.57
2016-12-21T02:01:17.196Z,1020.62
2016-12-21T02:02:26.496Z,1020.69
2016-12-21T02:03:35.785Z,1020.71
2016-12-21T02:04:44.457Z,1020.67
2016-12-21T02:05:53.451Z,1020.7
2016-12-21T02:07:02.578Z,1020.71
2016-12-21T02:08:11.864Z,1020.73
2016-12-21T02:09:21.148Z,1020.72
2016-12-21T02:10:30.158Z,1020.72
2016-12-21T02:11:39.158Z,1020.77
2016-12-21T02:12:47.883Z,1020.78
2016-12-21T02:13:56.861Z,1020.78
2016-12-21T02:15:06.158Z,1020.79
2016-12-21T02:16:15.459Z,1020.81
2016-12-21T02:17:25.049Z,1020.8
2016-12-21T02:18:34.042Z,1020.83
2016-12-21T02:19:42.717Z,1020.86
2016-12-21T02:20:51.692Z,1020.78
2016-12-21T02:22:00.678Z,1020.83
2016-12-21T02:23:09.354Z,1020.84
2016-12-21T02:24:19.003Z,1020.89
2016-12-21T02:25:28.289Z,1020.92
2016-12-21T02:26:36.986Z,1020.97
2016-12-21T02:27:45.970Z,1020.96
2016-12-21T02:28:54.943Z,1020.95
2016-12-21T02:30:04.256Z,1020.96
2016-12-21T02:31:13.534Z,1020.94
2016-12-21T02:32:23.130Z,1021
2016-12-21T02:33:32.730Z,1021.02
2016-12-21T02:34:41.442Z,1021.08
2016-12-21T02:35:50.577Z,1021.11
2016-12-21T02:36:59.579Z,1021.11
2016-12-21T02:38:08.258Z,1021.1
2016-12-21T02:39:17.293Z,1021.07
2016-12-21T02:40:26.290Z,1021.08
2016-12-21T02:41:36.233Z,1021.11
2016-12-21T02:42:45.525Z,1021.09
2016-12-21T02:43:54.502Z,1021.08
2016-12-21T02:45:03.176Z,1021.12
2016-12-21T02:46:12.172Z,1021.07
2016-12-21T02:47:21.537Z,1021.11
2016-12-21T02:48:30.521Z,1021.07
2016-12-21T02:49:39.201Z,1021.09
2016-12-21T02:50:48.496Z,1021.12
2016-12-21T02:51:57.481Z,1021.1
2016-12-21T02:53:06.780Z,1021.13
2016-12-21T02:54:16.075Z,1021.1
2016-12-21T02:55:24.774Z,1021.12
2016-12-21T02:56:34.069Z,1021.15
2016-12-21T02:57:43.387Z,1021.15
2016-12-21T02:58:52.064Z,1021.1
2016-12-21T03:00:01.665Z,1021.06
2016-12-21T03:01:10.715Z,1021.06
2016-12-21T03:02:19.403Z,1021.05
2016-12-21T03:03:28.383Z,1021.12
2016-12-21T03:04:37.368Z,1021.11
2016-12-21T03:05:46.376Z,1021.19
2016-12-21T03:06:55.687Z,1021.17
2016-12-21T03:08:04.982Z,1021.17
2016-12-21T03:09:13.685Z,1021.14
2016-12-21T03:10:22.670Z,1021.08
2016-12-21T03:11:32.017Z,1021.14
2016-12-21T03:12:41.932Z,1021.15
2016-12-21T03:13:50.620Z,1021.06
2016-12-21T03:15:00.215Z,1021.07
2016-12-21T03:16:09.357Z,1021
2016-12-21T03:17:18.344Z,1020.99
2016-12-21T03:18:27.025Z,1020.99
2016-12-21T03:19:36.311Z,1021.02
2016-12-21T03:20:45.006Z,1021.09
2016-12-21T03:21:54.409Z,1021.12
2016-12-21T03:23:04.019Z,1021.14
2016-12-21T03:24:13.011Z,1021.17
2016-12-21T03:25:21.712Z,1021.18
2016-12-21T03:26:30.687Z,1021.2
2016-12-21T03:27:39.822Z,1021.18
2016-12-21T03:28:48.514Z,1021.15
2016-12-21T03:29:57.503Z,1021.21
2016-12-21T03:31:06.180Z,1021.18
2016-12-21T03:32:15.216Z,1021.13
2016-12-21T03:33:24.252Z,1021.15
2016-12-21T03:34:33.235Z,1021.13
2016-12-21T03:35:42.221Z,1021.09
2016-12-21T03:36:51.204Z,1021.09
2016-12-21T03:38:00.509Z,1021.09
2016-12-21T03:39:09.656Z,1021.12
2016-12-21T03:40:18.657Z,1021.08
2016-12-21T03:41:27.665Z,1021.08
2016-12-21T03:42:36.662Z,1021.07
2016-12-21T03:43:45.649Z,1021.07
2016-12-21T03:44:55.256Z,1021.04
2016-12-21T03:46:04.278Z,1021.04
2016-12-21T03:47:13.910Z,1021.02
2016-12-21T03:48:22.906Z,1021.02
2016-12-21T03:49:31.915Z,1021.03
2016-12-21T03:50:40.908Z,1021.12
2016-12-21T03:51:49.900Z,1021.18
2016-12-21T03:52:59.190Z,1021.2
2016-12-21T03:54:08.218Z,1021.2
2016-12-21T03:55:17.521Z,1021.21
2016-12-21T03:56:26.512Z,1021.19
2016-12-21T03:57:35.504Z,1021.18
2016-12-21T03:58:44.498Z,1021.17
2016-12-21T03:59:53.167Z,1021.24
2016-12-21T04:01:02.147Z,1021.26
2016-12-21T04:02:11.178Z,1021.28
2016-12-21T04:03:20.483Z,1021.3
2016-12-21T04:04:29.455Z,1021.36
2016-12-21T04:05:38.751Z,1021.41
2016-12-21T04:06:47.743Z,1021.35
2016-12-21T04:07:56.867Z,1021.36
2016-12-21T04:09:05.857Z,1021.37
2016-12-21T04:10:14.836Z,1021.33
2016-12-21T04:11:24.130Z,1021.32
2016-12-21T04:12:33.452Z,1021.27
2016-12-21T04:13:42.132Z,1021.28
2016-12-21T04:14:51.731Z,1021.2
2016-12-21T04:16:00.712Z,1021.24
2016-12-21T04:17:09.399Z,1021.19
2016-12-21T04:18:18.081Z,1021.23
2016-12-21T04:19:27.078Z,1021.29
2016-12-21T04:20:35.761Z,1021.25
2016-12-21T04:21:44.775Z,1021.22
2016-12-21T04:22:54.078Z,1021.2
2016-12-21T04:24:03.680Z,1021.32
2016-12-21T04:25:13.076Z,1021.38
2016-12-21T04:26:22.668Z,1021.42
2016-12-21T04:27:31.653Z,1021.47
2016-12-21T04:28:40.650Z,1021.44
2016-12-21T04:29:49.942Z,1021.4
2016-12-21T04:30:58.979Z,1021.43
2016-12-21T04:32:07.976Z,1021.42
2016-12-21T04:33:16.973Z,1021.47
2016-12-21T04:34:25.969Z,1021.5
2016-12-21T04:35:34.666Z,1021.48
2016-12-21T04:36:43.352Z,1021.54
2016-12-21T04:37:52.046Z,1021.59
2016-12-21T04:39:01.038Z,1021.63
2016-12-21T04:40:10.633Z,1021.66
2016-12-21T04:41:19.317Z,1021.6
2016-12-21T04:42:29.033Z,1021.59
2016-12-21T04:43:38.349Z,1021.55
2016-12-21T04:44:47.644Z,1021.6
2016-12-21T04:45:56.336Z,1021.65
2016-12-21T04:47:05.036Z,1021.67
2016-12-21T04:48:14.039Z,1021.77
2016-12-21T04:49:23.659Z,1021.78
2016-12-21T04:50:32.346Z,1021.74
2016-12-21T04:51:41.874Z,1021.74
2016-12-21T04:52:50.868Z,1021.73
2016-12-21T04:53:59.706Z,1021.7
2016-12-21T04:55:08.713Z,1021.69
2016-12-21T04:56:18.025Z,1021.73
2016-12-21T04:57:27.332Z,1021.79
2016-12-21T04:58:36.649Z,1021.76
2016-12-21T04:59:45.682Z,1021.74
2016-12-21T05:00:54.676Z,1021.75
2016-12-21T05:02:03.962Z,1021.77
2016-12-21T05:03:13.248Z,1021.79
2016-12-21T05:04:21.941Z,1021.8
2016-12-21T05:05:30.632Z,1021.84
2016-12-21T05:06:39.632Z,1021.93
2016-12-21T05:07:48.620Z,1021.95
2016-12-21T05:08:57.656Z,1021.9
2016-12-21T05:10:06.337Z,1021.88
2016-12-21T05:11:15.197Z,1021.86
2016-12-21T05:12:24.184Z,1021.86
2016-12-21T05:13:33.784Z,1021.88
2016-12-21T05:14:42.471Z,1021.81
2016-12-21T05:15:51.481Z,1021.82
2016-12-21T05:17:00.483Z,1021.88
2016-12-21T05:18:09.170Z,1021.96
2016-12-21T05:19:18.489Z,1022
2016-12-21T05:20:27.462Z,1021.97
2016-12-21T05:21:36.448Z,1021.83
2016-12-21T05:22:46.134Z,1021.74
2016-12-21T05:23:55.130Z,1021.79
2016-12-21T05:25:04.455Z,1021.9
2016-12-21T05:26:13.134Z,1022.07
2016-12-21T05:27:22.160Z,1022.09
2016-12-21T05:28:31.639Z,1022.07
2016-12-21T05:29:40.324Z,1021.96
2016-12-21T05:30:49.075Z,1021.9
2016-12-21T05:31:57.765Z,1022
2016-12-21T05:33:07.474Z,1022.09
2016-12-21T05:34:16.456Z,1022.15
2016-12-21T05:35:25.460Z,1022.1
2016-12-21T05:36:35.104Z,1021.97
2016-12-21T05:37:44.088Z,1021.9
2016-12-21T05:38:52.799Z,1022.01
2016-12-21T05:40:01.512Z,1022.14
2016-12-21T05:41:10.191Z,1022.18
2016-12-21T05:42:19.796Z,1022.07
2016-12-21T05:43:29.093Z,1021.97
2016-12-21T05:44:38.082Z,1021.92
2016-12-21T05:45:46.780Z,1022.01
2016-12-21T05:46:55.764Z,1022.08
2016-12-21T05:48:05.387Z,1022.07
2016-12-21T05:49:14.991Z,1022
2016-12-21T05:50:24.596Z,1021.98
2016-12-21T05:51:34.189Z,1022.03
2016-12-21T05:52:43.516Z,1022.09
2016-12-21T05:53:53.110Z,1022.16
2016-12-21T05:55:01.844Z,1022.15
2016-12-21T05:56:11.165Z,1022.17
2016-12-21T05:57:19.849Z,1022.21
2016-12-21T05:58:28.839Z,1022.17
2016-12-21T05:59:38.437Z,1022.14
2016-12-21T06:00:48.261Z,1022.14
2016-12-21T06:01:56.945Z,1022.14
2016-12-21T06:03:06.253Z,1022.06
2016-12-21T06:04:15.252Z,1022.07
2016-12-21T06:05:24.248Z,1022.06
2016-12-21T06:06:32.978Z,1022.03
2016-12-21T06:07:41.670Z,1021.97
2016-12-21T06:08:50.354Z,1021.94
2016-12-21T06:09:59.691Z,1021.99
2016-12-21T06:11:08.687Z,1021.98
2016-12-21T06:12:17.390Z,1022.02
2016-12-21T06:13:26.105Z,1022.03
2016-12-21T06:14:35.392Z,1021.87
2016-12-21T06:15:44.389Z,1021.88
2016-12-21T06:16:53.081Z,1021.85
2016-12-21T06:18:02.679Z,1021.84
2016-12-21T06:19:11.356Z,1021.83
2016-12-21T06:20:20.063Z,1021.81
2016-12-21T06:21:28.756Z,1021.77
2016-12-21T06:22:38.354Z,1021.72
2016-12-21T06:23:47.390Z,1021.75
2016-12-21T06:24:57.008Z,1021.75
2016-12-21T06:26:06.980Z,1021.78
2016-12-21T06:27:15.988Z,1021.86
2016-12-21T06:28:25.010Z,1021.85
2016-12-21T06:29:33.714Z,1021.86
2016-12-21T06:30:42.706Z,1021.87
2016-12-21T06:31:52.020Z,1021.86
2016-12-21T06:33:01.038Z,1021.84
2016-12-21T06:34:10.333Z,1021.87
2016-12-21T06:35:19.333Z,1021.91
2016-12-21T06:36:28.420Z,1021.99
2016-12-21T06:37:37.421Z,1021.92
2016-12-21T06:38:46.755Z,1021.83
2016-12-21T06:39:56.048Z,1021.76
2016-12-21T06:41:05.661Z,1021.76
2016-12-21T06:42:14.332Z,1021.74
2016-12-21T06:43:23.819Z,1021.81
2016-12-21T06:44:32.877Z,1021.86
2016-12-21T06:45:41.553Z,1021.89
2016-12-21T06:46:50.569Z,1021.91
2016-12-21T06:47:59.258Z,1021.88
2016-12-21T06:49:09.331Z,1021.9
2016-12-21T06:50:18.028Z,1021.88
2016-12-21T06:51:27.063Z,1021.97
2016-12-21T06:52:36.058Z,1022.04
2016-12-21T06:53:45.083Z,1022.05
2016-12-21T06:54:54.121Z,1022.06
2016-12-21T06:56:03.107Z,1022.01
2016-12-21T06:57:12.091Z,1021.97
2016-12-21T06:58:21.424Z,1021.98
2016-12-21T06:59:30.418Z,1021.99
2016-12-21T07:00:39.829Z,1022.06
2016-12-21T07:01:48.825Z,1022.06
2016-12-21T07:02:57.499Z,1022.04
2016-12-21T07:04:06.479Z,1022.01
2016-12-21T07:05:15.470Z,1022.02
2016-12-21T07:06:24.605Z,1022.05
2016-12-21T07:07:33.635Z,1022.08
2016-12-21T07:08:42.318Z,1022.03
2016-12-21T07:09:51.612Z,1021.98
2016-12-21T07:11:00.300Z,1021.93
2016-12-21T07:12:09.286Z,1021.87
2016-12-21T07:13:18.589Z,1021.8
2016-12-21T07:14:27.577Z,1021.84
2016-12-21T07:15:37.170Z,1021.85
2016-12-21T07:16:45.848Z,1021.88
2016-12-21T07:17:55.155Z,1021.9
2016-12-21T07:19:04.141Z,1021.92
2016-12-21T07:20:13.440Z,1021.88
2016-12-21T07:21:23.275Z,1021.98
2016-12-21T07:22:32.564Z,1022.01
2016-12-21T07:23:41.238Z,1021.95
2016-12-21T07:24:50.538Z,1022
2016-12-21T07:25:59.527Z,1022
2016-12-21T07:27:09.167Z,1022.03
2016-12-21T07:28:18.177Z,1022
2016-12-21T07:29:27.473Z,1022.06
2016-12-21T07:30:37.064Z,1022.02
2016-12-21T07:31:46.058Z,1022.04
2016-12-21T07:32:55.045Z,1022.05
2016-12-21T07:34:04.361Z,1022.04
2016-12-21T07:35:13.383Z,1022.07
2016-12-21T07:36:22.386Z,1022.13
2016-12-21T07:37:31.379Z,1022.11
2016-12-21T07:38:40.974Z,1022.16
2016-12-21T07:39:49.652Z,1022.19
2016-12-21T07:40:58.484Z,1022.2
2016-12-21T07:42:07.772Z,1022.18
2016-12-21T07:43:17.057Z,1022.17
2016-12-21T07:44:26.961Z,1022.2
2016-12-21T07:45:35.946Z,1022.22
2016-12-21T07:46:44.928Z,1022.19
2016-12-21T07:47:53.917Z,1022.2
2016-12-21T07:49:02.898Z,1022.26
2016-12-21T07:50:12.182Z,1022.26
2016-12-21T07:51:21.164Z,1022.26
2016-12-21T07:52:30.003Z,1022.28
2016-12-21T07:53:39.311Z,1022.31
2016-12-21T07:54:48.920Z,1022.28
2016-12-21T07:55:57.605Z,1022.3
2016-12-21T07:57:06.286Z,1022.29
2016-12-21T07:58:15.120Z,1022.25
2016-12-21T07:59:24.409Z,1022.21
2016-12-21T08:00:34.048Z,1022.24
2016-12-21T08:01:43.347Z,1022.21
2016-12-21T08:02:52.053Z,1022.22
2016-12-21T08:04:01.825Z,1022.19
2016-12-21T08:05:10.515Z,1022.2
2016-12-21T08:06:19.254Z,1022.2
2016-12-21T08:07:29.157Z,1022.22
2016-12-21T08:08:38.754Z,1022.26
2016-12-21T08:09:48.252Z,1022.23
2016-12-21T08:10:57.241Z,1022.25
2016-12-21T08:12:06.285Z,1022.25
2016-12-21T08:13:15.293Z,1022.28
2016-12-21T08:14:24.877Z,1022.31
2016-12-21T08:15:34.245Z,1022.31
2016-12-21T08:16:43.250Z,1022.31
2016-12-21T08:17:51.926Z,1022.29
2016-12-21T08:19:00.909Z,1022.29
2016-12-21T08:20:10.197Z,1022.26
2016-12-21T08:21:18.967Z,1022.24
2016-12-21T08:22:27.657Z,1022.27
2016-12-21T08:23:36.966Z,1022.32
2016-12-21T08:24:45.941Z,1022.34
2016-12-21T08:25:55.233Z,1022.34
2016-12-21T08:27:04.882Z,1022.38
2016-12-21T08:28:13.572Z,1022.35
2016-12-21T08:29:22.566Z,1022.37
2016-12-21T08:30:31.870Z,1022.44
2016-12-21T08:31:41.173Z,1022.45
2016-12-21T08:32:51.133Z,1022.47
2016-12-21T08:34:00.423Z,1022.49
2016-12-21T08:35:09.107Z,1022.52
2016-12-21T08:36:18.096Z,1022.52
2016-12-21T08:37:26.774Z,1022.56
2016-12-21T08:38:36.550Z,1022.59
2016-12-21T08:39:45.847Z,1022.62
2016-12-21T08:40:55.754Z,1022.66
2016-12-21T08:42:05.052Z,1022.63
2016-12-21T08:43:14.052Z,1022.62
2016-12-21T08:44:23.511Z,1022.61
2016-12-21T08:45:32.808Z,1022.56
2016-12-21T08:46:41.806Z,1022.54
2016-12-21T08:47:51.458Z,1022.54
2016-12-21T08:49:00.441Z,1022.56
2016-12-21T08:50:09.287Z,1022.57
2016-12-21T08:51:18.580Z,1022.55
2016-12-21T08:52:27.893Z,1022.58
2016-12-21T08:53:36.882Z,1022.56
2016-12-21T08:54:45.573Z,1022.59
2016-12-21T08:55:54.429Z,1022.54
2016-12-21T08:57:03.435Z,1022.57
2016-12-21T08:58:12.432Z,1022.58
2016-12-21T08:59:21.424Z,1022.6
2016-12-21T09:00:30.144Z,1022.61
2016-12-21T09:01:39.287Z,1022.61
2016-12-21T09:02:48.930Z,1022.62
2016-12-21T09:03:57.931Z,1022.59
2016-12-21T09:05:06.619Z,1022.59
2016-12-21T09:06:15.304Z,1022.64
2016-12-21T09:07:24.086Z,1022.65
2016-12-21T09:08:33.391Z,1022.65
2016-12-21T09:09:42.697Z,1022.6
2016-12-21T09:10:52.002Z,1022.56
2016-12-21T09:12:01.303Z,1022.54
2016-12-21T09:13:09.990Z,1022.56
2016-12-21T09:14:19.681Z,1022.54
2016-12-21T09:15:28.992Z,1022.5
2016-12-21T09:16:38.288Z,1022.47
2016-12-21T09:17:47.298Z,1022.49
2016-12-21T09:18:56.286Z,1022.53
2016-12-21T09:20:05.275Z,1022.56
2016-12-21T09:21:14.263Z,1022.57
2016-12-21T09:22:23.555Z,1022.51
2016-12-21T09:23:32.871Z,1022.52
2016-12-21T09:24:41.876Z,1022.54
2016-12-21T09:25:51.472Z,1022.52
2016-12-21T09:27:00.766Z,1022.62
2016-12-21T09:28:09.767Z,1022.59
2016-12-21T09:29:18.455Z,1022.62
2016-12-21T09:30:27.919Z,1022.56
2016-12-21T09:31:36.927Z,1022.61
2016-12-21T09:32:45.920Z,1022.59
2016-12-21T09:33:54.914Z,1022.62
2016-12-21T09:35:03.604Z,1022.69
2016-12-21T09:36:12.928Z,1022.68
2016-12-21T09:37:21.618Z,1022.71
2016-12-21T09:38:30.307Z,1022.71
2016-12-21T09:39:39.628Z,1022.77
2016-12-21T09:40:48.603Z,1022.73
2016-12-21T09:41:57.610Z,1022.75
2016-12-21T09:43:06.934Z,1022.68
2016-12-21T09:44:15.925Z,1022.69
2016-12-21T09:45:24.916Z,1022.75
2016-12-21T09:46:34.518Z,1022.73
2016-12-21T09:47:43.659Z,1022.78
2016-12-21T09:50:33.438Z,1022.81
2016-12-21T09:51:43.352Z,1022.81
2016-12-21T09:52:52.043Z,1022.78
2016-12-21T09:54:01.340Z,1022.82
2016-12-21T09:55:10.318Z,1022.76
2016-12-21T09:56:18.991Z,1022.79
2016-12-21T09:57:27.668Z,1022.75
2016-12-21T09:58:36.652Z,1022.74
2016-12-21T09:59:45.639Z,1022.76
2016-12-21T10:00:54.343Z,1022.76
2016-12-21T10:02:03.028Z,1022.78
2016-12-21T10:03:12.011Z,1022.79
2016-12-21T10:04:21.311Z,1022.75
2016-12-21T10:05:29.983Z,1022.77
2016-12-21T10:06:38.661Z,1022.74
2016-12-21T10:07:47.337Z,1022.73
2016-12-21T10:08:56.011Z,1022.76
2016-12-21T10:10:04.747Z,1022.82
2016-12-21T10:11:14.048Z,1022.79
2016-12-21T10:12:23.047Z,1022.79
2016-12-21T10:13:32.356Z,1022.82
2016-12-21T10:14:41.640Z,1022.81
2016-12-21T10:15:50.780Z,1022.83
2016-12-21T10:17:00.073Z,1022.78
2016-12-21T10:18:09.066Z,1022.72
2016-12-21T10:19:18.062Z,1022.73
2016-12-21T10:20:27.049Z,1022.72
2016-12-21T10:21:36.044Z,1022.72
2016-12-21T10:22:44.733Z,1022.68
2016-12-21T10:23:53.448Z,1022.68
2016-12-21T10:25:03.039Z,1022.66
2016-12-21T10:26:12.332Z,1022.66
2016-12-21T10:27:21.005Z,1022.66
2016-12-21T10:28:30.300Z,1022.61
2016-12-21T10:29:38.990Z,1022.57
2016-12-21T10:30:47.986Z,1022.58
2016-12-21T10:31:56.971Z,1022.54
2016-12-21T10:33:06.275Z,1022.59
2016-12-21T10:34:15.557Z,1022.55
2016-12-21T10:35:24.240Z,1022.57
2016-12-21T10:36:33.554Z,1022.54
2016-12-21T10:37:42.843Z,1022.56
2016-12-21T10:38:51.831Z,1022.57
2016-12-21T10:40:00.843Z,1022.56
2016-12-21T10:41:09.846Z,1022.6
2016-12-21T10:42:19.138Z,1022.52
2016-12-21T10:43:28.113Z,1022.51
2016-12-21T10:44:36.796Z,1022.54
2016-12-21T10:45:45.777Z,1022.55
2016-12-21T10:46:54.763Z,1022.58
2016-12-21T10:48:04.053Z,1022.56
2016-12-21T10:49:12.765Z,1022.61
2016-12-21T10:50:21.770Z,1022.58
2016-12-21T10:51:30.755Z,1022.55
2016-12-21T10:52:40.068Z,1022.61
2016-12-21T10:53:48.760Z,1022.59
2016-12-21T10:54:58.055Z,1022.6
2016-12-21T10:56:07.044Z,1022.57
2016-12-21T10:57:15.732Z,1022.56
2016-12-21T10:58:24.730Z,1022.54
2016-12-21T10:59:34.028Z,1022.56
2016-12-21T11:00:43.034Z,1022.55
2016-12-21T11:01:52.027Z,1022.55
2016-12-21T11:03:01.013Z,1022.57
2016-12-21T11:04:10.310Z,1022.49
2016-12-21T11:05:19.287Z,1022.46
2016-12-21T11:06:28.280Z,1022.47
2016-12-21T11:07:37.254Z,1022.48
2016-12-21T11:08:46.848Z,1022.51
2016-12-21T11:09:56.135Z,1022.51
2016-12-21T11:11:05.128Z,1022.5
2016-12-21T11:12:14.423Z,1022.52
2016-12-21T11:13:23.107Z,1022.54
2016-12-21T11:14:31.795Z,1022.54
2016-12-21T11:15:40.785Z,1022.52
2016-12-21T11:16:49.477Z,1022.54
2016-12-21T11:17:58.780Z,1022.51
2016-12-21T11:19:08.079Z,1022.49
2016-12-21T11:20:16.774Z,1022.55
2016-12-21T11:21:25.776Z,1022.53
2016-12-21T11:22:35.075Z,1022.48
2016-12-21T11:23:44.085Z,1022.44
2016-12-21T11:24:53.075Z,1022.48
2016-12-21T11:26:02.397Z,1022.47
2016-12-21T11:27:11.148Z,1022.47
2016-12-21T11:28:20.148Z,1022.47
2016-12-21T11:29:30.053Z,1022.45
2016-12-21T11:30:40.270Z,1022.47
2016-12-21T11:31:49.263Z,1022.46
2016-12-21T11:32:57.947Z,1022.52
2016-12-21T11:34:06.645Z,1022.5
2016-12-21T11:35:15.328Z,1022.47
2016-12-21T11:36:24.327Z,1022.4
2016-12-21T11:37:33.627Z,1022.43
2016-12-21T11:38:43.229Z,1022.44
2016-12-21T11:39:52.533Z,1022.4
2016-12-21T11:41:01.538Z,1022.44
2016-12-21T11:42:10.544Z,1022.42
2016-12-21T11:43:19.248Z,1022.47
2016-12-21T11:44:28.565Z,1022.49
2016-12-21T11:45:37.254Z,1022.47
2016-12-21T11:46:46.554Z,1022.55
2016-12-21T11:47:55.844Z,1022.47
2016-12-21T11:49:05.145Z,1022.48
2016-12-21T11:50:14.134Z,1022.43
2016-12-21T11:51:23.116Z,1022.49
2016-12-21T11:52:32.107Z,1022.4
2016-12-21T11:53:41.726Z,1022.45
2016-12-21T11:54:50.727Z,1022.46
2016-12-21T11:56:00.024Z,1022.38
2016-12-21T11:57:09.026Z,1022.35
2016-12-21T11:58:18.026Z,1022.36
2016-12-21T11:59:27.025Z,1022.35
2016-12-21T12:00:35.716Z,1022.31
2016-12-21T12:01:45.026Z,1022.37
2016-12-21T12:02:54.005Z,1022.35
2016-12-21T12:04:02.994Z,1022.43
2016-12-21T12:05:11.990Z,1022.38
2016-12-21T12:06:21.278Z,1022.34
2016-12-21T12:07:30.257Z,1022.42
2016-12-21T12:08:39.852Z,1022.42
2016-12-21T12:09:49.143Z,1022.42
2016-12-21T12:10:58.128Z,1022.41
2016-12-21T12:12:07.127Z,1022.4
2016-12-21T12:13:16.114Z,1022.4
2016-12-21T12:14:25.728Z,1022.41
2016-12-21T12:15:34.409Z,1022.4
2016-12-21T12:16:43.560Z,1022.39
2016-12-21T12:17:52.247Z,1022.38
2016-12-21T12:19:00.929Z,1022.42
2016-12-21T12:20:09.606Z,1022.38
2016-12-21T12:21:18.903Z,1022.43
2016-12-21T12:22:27.882Z,1022.41
2016-12-21T12:23:37.187Z,1022.37
2016-12-21T12:24:46.171Z,1022.4
2016-12-21T12:25:55.160Z,1022.43
2016-12-21T12:27:04.797Z,1022.42
2016-12-21T12:28:14.092Z,1022.47
2016-12-21T12:29:22.781Z,1022.45
2016-12-21T12:30:31.469Z,1022.42
2016-12-21T12:31:40.155Z,1022.41
2016-12-21T12:32:49.455Z,1022.39
2016-12-21T12:33:58.786Z,1022.4
2016-12-21T12:35:08.085Z,1022.35
2016-12-21T12:36:16.763Z,1022.4
2016-12-21T12:37:25.748Z,1022.35
2016-12-21T12:38:34.435Z,1022.27
2016-12-21T12:39:43.423Z,1022.37
2016-12-21T12:40:52.730Z,1022.36
2016-12-21T12:42:01.719Z,1022.38
2016-12-21T12:43:11.010Z,1022.35
2016-12-21T12:44:19.699Z,1022.31
2016-12-21T12:45:28.691Z,1022.33
2016-12-21T12:46:37.679Z,1022.34
2016-12-21T12:47:46.711Z,1022.34
2016-12-21T12:48:55.418Z,1022.35
2016-12-21T12:50:04.112Z,1022.37
2016-12-21T12:51:13.760Z,1022.29
2016-12-21T12:52:22.755Z,1022.35
2016-12-21T12:53:31.794Z,1022.31
2016-12-21T12:54:41.096Z,1022.32
2016-12-21T12:55:49.777Z,1022.27
2016-12-21T12:56:59.082Z,1022.3
2016-12-21T12:58:08.072Z,1022.31
2016-12-21T12:59:17.057Z,1022.31
2016-12-21T13:00:25.747Z,1022.24
2016-12-21T13:01:34.742Z,1022.21
2016-12-21T13:02:43.438Z,1022.18
2016-12-21T13:03:52.730Z,1022.17
2016-12-21T13:05:02.035Z,1022.13
2016-12-21T13:06:10.727Z,1022.09
2016-12-21T13:07:19.728Z,1022.1
2016-12-21T13:08:28.710Z,1022.08
2016-12-21T13:09:37.738Z,1022.05
2016-12-21T13:10:47.032Z,1021.98
2016-12-21T13:11:56.346Z,1021.93
2016-12-21T13:13:05.656Z,1021.91
2016-12-21T13:14:14.333Z,1021.86
2016-12-21T13:15:23.325Z,1021.86
2016-12-21T13:16:32.613Z,1021.78
2016-12-21T13:17:41.923Z,1021.79
2016-12-21T13:18:50.910Z,1021.71
2016-12-21T13:19:59.596Z,1021.7
2016-12-21T13:21:09.209Z,1021.75
2016-12-21T13:22:18.881Z,1021.82
2016-12-21T13:23:27.871Z,1021.79
2016-12-21T13:24:36.852Z,1021.84
2016-12-21T13:25:46.452Z,1021.86
2016-12-21T13:26:55.446Z,1021.91
2016-12-21T13:28:04.135Z,1021.93
2016-12-21T13:29:13.441Z,1021.94
2016-12-21T13:30:22.124Z,1021.95
2016-12-21T13:31:31.106Z,1021.97
2016-12-21T13:32:39.799Z,1021.95
2016-12-21T13:33:49.098Z,1021.98
2016-12-21T13:34:57.780Z,1021.97
2016-12-21T13:36:06.771Z,1022.03
2016-12-21T13:37:16.068Z,1022.03
2016-12-21T13:38:25.067Z,1022.01
2016-12-21T13:39:34.077Z,1022.05
2016-12-21T13:40:43.680Z,1022.09
2016-12-21T13:41:52.372Z,1022.07
2016-12-21T13:43:01.369Z,1022.13
2016-12-21T13:44:10.395Z,1022.12
2016-12-21T13:45:19.687Z,1022.12
2016-12-21T13:46:28.398Z,1022.11
2016-12-21T13:47:37.083Z,1022.17
2016-12-21T13:48:46.380Z,1022.22
2016-12-21T13:49:55.673Z,1022.27
2016-12-21T13:51:04.664Z,1022.31
2016-12-21T13:52:13.948Z,1022.28
2016-12-21T13:53:23.239Z,1022.22
2016-12-21T13:54:33.353Z,1022.27
2016-12-21T13:55:42.684Z,1022.3
2016-12-21T13:56:51.679Z,1022.3
2016-12-21T13:58:00.371Z,1022.32
2016-12-21T13:59:09.059Z,1022.3
2016-12-21T14:00:18.356Z,1022.32